sensor_id;sensor_type;location;lat;lon;timestamp;pressure;altitude;pressure_sealevel;temperature;humidity
49545;BME280;74870;42.636;23.302;2024-01-27T00:01:13;93533.19;;;4.02;nan
49545;BME280;74870;42.636;23.302;2024-01-27T00:03:38;93500.00;;;3.87;nan
49545;BME280;74870;42.636;23.302;2024-01-27T00:06:04;93509.00;;;4.01;nan
49545;BME280;74870;42.636;23.302;2024-01-27T00:08:29;93500.16;;;4.02;nan
49545;BME280;74870;42.636;23.302;2024-01-27T00:10:55;93505.91;;;4.04;nan
49545;BME280;74870;42.636;23.302;2024-01-27T00:13:20;93512.31;;;4.18;nan
49545;BME280;74870;42.636;23.302;2024-01-27T00:16:04;93507.50;;;4.27;nan
49545;BME280;74870;42.636;23.302;2024-01-27T00:18:30;93510.75;;;4.39;nan
49545;BME280;74870;42.636;23.302;2024-01-27T00:20:55;93501.44;;;4.43;nan
49545;BME280;74870;42.636;23.302;2024-01-27T00:23:20;93502.28;;;4.49;nan
49545;BME280;74870;42.636;23.302;2024-01-27T00:25:46;93492.19;;;4.52;nan
49545;BME280;74870;42.636;23.302;2024-01-27T00:28:11;93492.13;;;4.47;nan
49545;BME280;74870;42.636;23.302;2024-01-27T00:30:37;93503.91;;;4.55;nan
49545;BME280;74870;42.636;23.302;2024-01-27T00:33:02;93506.81;;;4.58;nan
49545;BME280;74870;42.636;23.302;2024-01-27T00:35:27;93476.53;;;4.47;nan
49545;BME280;74870;42.636;23.302;2024-01-27T00:37:53;93493.59;;;4.65;nan
49545;BME280;74870;42.636;23.302;2024-01-27T00:40:18;93494.66;;;4.64;nan
49545;BME280;74870;42.636;23.302;2024-01-27T00:42:44;93499.41;;;4.72;nan
49545;BME280;74870;42.636;23.302;2024-01-27T00:45:09;93503.81;;;4.71;nan
49545;BME280;74870;42.636;23.302;2024-01-27T00:47:34;93499.69;;;4.75;nan
49545;BME280;74870;42.636;23.302;2024-01-27T00:50:00;93505.72;;;4.81;nan
49545;BME280;74870;42.636;23.302;2024-01-27T00:52:25;93502.31;;;4.75;nan
49545;BME280;74870;42.636;23.302;2024-01-27T00:54:51;93507.31;;;4.82;nan
49545;BME280;74870;42.636;23.302;2024-01-27T00:57:16;93492.25;;;4.84;nan
49545;BME280;74870;42.636;23.302;2024-01-27T00:59:42;93487.59;;;4.86;nan
49545;BME280;74870;42.636;23.302;2024-01-27T01:02:07;93500.88;;;4.89;nan
49545;BME280;74870;42.636;23.302;2024-01-27T01:04:33;93503.78;;;4.93;nan
49545;BME280;74870;42.636;23.302;2024-01-27T01:06:58;93495.22;;;4.97;nan
49545;BME280;74870;42.636;23.302;2024-01-27T01:09:24;93436.09;;;4.61;nan
49545;BME280;74870;42.636;23.302;2024-01-27T01:11:49;93486.84;;;4.90;nan
49545;BME280;74870;42.636;23.302;2024-01-27T01:14:15;93488.94;;;4.93;nan
49545;BME280;74870;42.636;23.302;2024-01-27T01:16:41;93487.41;;;4.92;nan
49545;BME280;74870;42.636;23.302;2024-01-27T01:19:06;93477.72;;;4.88;nan
49545;BME280;74870;42.636;23.302;2024-01-27T01:21:32;93491.84;;;4.97;nan
49545;BME280;74870;42.636;23.302;2024-01-27T01:23:57;93482.41;;;4.91;nan
49545;BME280;74870;42.636;23.302;2024-01-27T01:26:24;93484.56;;;4.99;nan
49545;BME280;74870;42.636;23.302;2024-01-27T01:28:49;93472.53;;;4.93;nan
49545;BME280;74870;42.636;23.302;2024-01-27T01:31:15;93475.47;;;4.96;nan
49545;BME280;74870;42.636;23.302;2024-01-27T01:33:40;93480.69;;;5.01;nan
49545;BME280;74870;42.636;23.302;2024-01-27T01:36:06;93468.97;;;4.99;nan
49545;BME280;74870;42.636;23.302;2024-01-27T01:38:31;93470.03;;;5.03;nan
49545;BME280;74870;42.636;23.302;2024-01-27T01:40:56;93465.69;;;5.13;nan
49545;BME280;74870;42.636;23.302;2024-01-27T01:43:22;93451.41;;;5.16;nan
49545;BME280;74870;42.636;23.302;2024-01-27T01:45:47;93470.22;;;5.23;nan
49545;BME280;74870;42.636;23.302;2024-01-27T01:48:13;93460.56;;;5.19;nan
49545;BME280;74870;42.636;23.302;2024-01-27T01:50:38;93444.13;;;5.18;nan
49545;BME280;74870;42.636;23.302;2024-01-27T01:53:04;93437.31;;;5.12;nan
49545;BME280;74870;42.636;23.302;2024-01-27T01:55:30;93457.16;;;5.18;nan
49545;BME280;74870;42.636;23.302;2024-01-27T01:57:56;93466.13;;;5.32;nan
49545;BME280;74870;42.636;23.302;2024-01-27T02:00:21;93448.69;;;5.38;nan
49545;BME280;74870;42.636;23.302;2024-01-27T02:02:47;93453.41;;;5.41;nan
49545;BME280;74870;42.636;23.302;2024-01-27T02:05:13;93431.31;;;5.43;nan
49545;BME280;74870;42.636;23.302;2024-01-27T02:07:39;93452.69;;;5.50;nan
49545;BME280;74870;42.636;23.302;2024-01-27T02:10:13;93462.38;;;5.55;nan
49545;BME280;74870;42.636;23.302;2024-01-27T02:12:40;93427.16;;;5.47;nan
49545;BME280;74870;42.636;23.302;2024-01-27T02:15:11;93424.84;;;5.51;nan
49545;BME280;74870;42.636;23.302;2024-01-27T02:17:40;93423.78;;;5.52;nan
49545;BME280;74870;42.636;23.302;2024-01-27T02:20:06;93425.91;;;5.60;nan
49545;BME280;74870;42.636;23.302;2024-01-27T02:22:35;93428.53;;;5.60;nan
49545;BME280;74870;42.636;23.302;2024-01-27T02:25:02;93415.50;;;5.55;nan
49545;BME280;74870;42.636;23.302;2024-01-27T02:27:28;93431.88;;;5.50;nan
49545;BME280;74870;42.636;23.302;2024-01-27T02:29:53;93431.38;;;5.53;nan
49545;BME280;74870;42.636;23.302;2024-01-27T02:32:19;93412.63;;;5.51;nan
49545;BME280;74870;42.636;23.302;2024-01-27T02:34:44;93416.81;;;5.57;nan
49545;BME280;74870;42.636;23.302;2024-01-27T02:37:10;93416.03;;;5.57;nan
49545;BME280;74870;42.636;23.302;2024-01-27T02:39:35;93415.19;;;5.46;nan
49545;BME280;74870;42.636;23.302;2024-01-27T02:42:01;93429.25;;;5.50;nan
49545;BME280;74870;42.636;23.302;2024-01-27T02:44:27;93427.72;;;5.54;nan
49545;BME280;74870;42.636;23.302;2024-01-27T02:46:52;93396.13;;;5.41;nan
49545;BME280;74870;42.636;23.302;2024-01-27T02:49:18;93428.28;;;5.61;nan
49545;BME280;74870;42.636;23.302;2024-01-27T02:51:43;93422.28;;;5.61;nan
49545;BME280;74870;42.636;23.302;2024-01-27T02:54:09;93424.16;;;5.70;nan
49545;BME280;74870;42.636;23.302;2024-01-27T02:56:35;93378.75;;;5.51;nan
49545;BME280;74870;42.636;23.302;2024-01-27T02:59:00;93423.41;;;5.80;nan
49545;BME280;74870;42.636;23.302;2024-01-27T03:01:25;93422.13;;;5.77;nan
49545;BME280;74870;42.636;23.302;2024-01-27T03:03:51;93355.50;;;5.40;nan
49545;BME280;74870;42.636;23.302;2024-01-27T03:06:16;93422.63;;;5.74;nan
49545;BME280;74870;42.636;23.302;2024-01-27T03:08:42;93416.34;;;5.70;nan
49545;BME280;74870;42.636;23.302;2024-01-27T03:11:07;93433.03;;;5.69;nan
49545;BME280;74870;42.636;23.302;2024-01-27T03:13:32;93429.63;;;5.69;nan
49545;BME280;74870;42.636;23.302;2024-01-27T03:15:58;93428.28;;;5.61;nan
49545;BME280;74870;42.636;23.302;2024-01-27T03:18:23;93434.47;;;5.50;nan
49545;BME280;74870;42.636;23.302;2024-01-27T03:20:50;93435.53;;;5.49;nan
49545;BME280;74870;42.636;23.302;2024-01-27T03:23:15;93431.84;;;5.45;nan
49545;BME280;74870;42.636;23.302;2024-01-27T03:25:41;93436.53;;;5.43;nan
49545;BME280;74870;42.636;23.302;2024-01-27T03:28:06;93390.22;;;5.13;nan
49545;BME280;74870;42.636;23.302;2024-01-27T03:30:31;93423.06;;;5.20;nan
49545;BME280;74870;42.636;23.302;2024-01-27T03:32:57;93434.25;;;5.20;nan
49545;BME280;74870;42.636;23.302;2024-01-27T03:35:22;93425.34;;;5.11;nan
49545;BME280;74870;42.636;23.302;2024-01-27T03:37:47;93415.97;;;5.10;nan
49545;BME280;74870;42.636;23.302;2024-01-27T03:40:14;93409.69;;;5.06;nan
49545;BME280;74870;42.636;23.302;2024-01-27T03:42:39;93414.19;;;5.16;nan
49545;BME280;74870;42.636;23.302;2024-01-27T03:45:05;93415.47;;;5.13;nan
49545;BME280;74870;42.636;23.302;2024-01-27T03:47:30;93414.44;;;5.14;nan
49545;BME280;74870;42.636;23.302;2024-01-27T03:49:56;93410.75;;;5.10;nan
49545;BME280;74870;42.636;23.302;2024-01-27T03:52:21;93360.28;;;4.74;nan
49545;BME280;74870;42.636;23.302;2024-01-27T03:54:46;93389.94;;;5.10;nan
49545;BME280;74870;42.636;23.302;2024-01-27T03:57:12;93401.16;;;5.16;nan
49545;BME280;74870;42.636;23.302;2024-01-27T03:59:40;93404.63;;;5.21;nan
49545;BME280;74870;42.636;23.302;2024-01-27T04:02:06;93388.41;;;5.14;nan
49545;BME280;74870;42.636;23.302;2024-01-27T04:04:31;93406.44;;;5.26;nan
49545;BME280;74870;42.636;23.302;2024-01-27T04:06:57;93408.50;;;5.24;nan
49545;BME280;74870;42.636;23.302;2024-01-27T04:09:23;93413.41;;;5.15;nan
49545;BME280;74870;42.636;23.302;2024-01-27T04:11:49;93405.31;;;5.11;nan
49545;BME280;74870;42.636;23.302;2024-01-27T04:14:14;93403.28;;;5.19;nan
49545;BME280;74870;42.636;23.302;2024-01-27T04:16:39;93413.41;;;5.15;nan
49545;BME280;74870;42.636;23.302;2024-01-27T04:19:05;93400.94;;;5.17;nan
49545;BME280;74870;42.636;23.302;2024-01-27T04:21:30;93406.69;;;5.24;nan
49545;BME280;74870;42.636;23.302;2024-01-27T04:23:56;93370.91;;;5.04;nan
49545;BME280;74870;42.636;23.302;2024-01-27T04:26:21;93405.69;;;5.30;nan
49545;BME280;74870;42.636;23.302;2024-01-27T04:28:46;93404.63;;;5.26;nan
49545;BME280;74870;42.636;23.302;2024-01-27T04:31:12;93416.69;;;5.37;nan
49545;BME280;74870;42.636;23.302;2024-01-27T04:33:37;93403.41;;;5.39;nan
49545;BME280;74870;42.636;23.302;2024-01-27T04:36:03;93408.91;;;5.42;nan
49545;BME280;74870;42.636;23.302;2024-01-27T04:38:28;93417.50;;;5.48;nan
49545;BME280;74870;42.636;23.302;2024-01-27T04:40:53;93421.72;;;5.49;nan
49545;BME280;74870;42.636;23.302;2024-01-27T04:43:19;93413.84;;;5.44;nan
49545;BME280;74870;42.636;23.302;2024-01-27T04:45:48;93410.25;;;5.50;nan
49545;BME280;74870;42.636;23.302;2024-01-27T04:48:14;93391.16;;;5.34;nan
49545;BME280;74870;42.636;23.302;2024-01-27T04:50:40;93408.41;;;5.45;nan
49545;BME280;74870;42.636;23.302;2024-01-27T04:53:05;93406.34;;;5.47;nan
49545;BME280;74870;42.636;23.302;2024-01-27T04:55:30;93414.16;;;5.47;nan
49545;BME280;74870;42.636;23.302;2024-01-27T04:57:56;93416.97;;;5.46;nan
49545;BME280;74870;42.636;23.302;2024-01-27T05:00:23;93401.84;;;5.38;nan
49545;BME280;74870;42.636;23.302;2024-01-27T05:02:50;93411.03;;;5.50;nan
49545;BME280;74870;42.636;23.302;2024-01-27T05:05:15;93417.50;;;5.48;nan
49545;BME280;74870;42.636;23.302;2024-01-27T05:07:41;93418.56;;;5.47;nan
49545;BME280;74870;42.636;23.302;2024-01-27T05:10:09;93426.59;;;5.40;nan
49545;BME280;74870;42.636;23.302;2024-01-27T05:12:35;93438.06;;;5.44;nan
49545;BME280;74870;42.636;23.302;2024-01-27T05:15:00;93435.72;;;5.43;nan
49545;BME280;74870;42.636;23.302;2024-01-27T05:17:26;93438.88;;;5.45;nan
49545;BME280;74870;42.636;23.302;2024-01-27T05:19:51;93434.66;;;5.39;nan
49545;BME280;74870;42.636;23.302;2024-01-27T05:22:17;93433.59;;;5.40;nan
49545;BME280;74870;42.636;23.302;2024-01-27T05:24:42;93426.81;;;5.34;nan
49545;BME280;74870;42.636;23.302;2024-01-27T05:27:07;93430.53;;;5.43;nan
49545;BME280;74870;42.636;23.302;2024-01-27T05:29:33;93435.72;;;5.43;nan
49545;BME280;74870;42.636;23.302;2024-01-27T05:31:58;93431.88;;;5.50;nan
49545;BME280;74870;42.636;23.302;2024-01-27T05:34:23;93425.38;;;5.53;nan
49545;BME280;74870;42.636;23.302;2024-01-27T05:36:49;93424.91;;;5.61;nan
49545;BME280;74870;42.636;23.302;2024-01-27T05:39:14;93433.56;;;5.71;nan
49545;BME280;74870;42.636;23.302;2024-01-27T05:41:40;93436.16;;;5.71;nan
49545;BME280;74870;42.636;23.302;2024-01-27T05:44:05;93440.59;;;5.71;nan
49545;BME280;74870;42.636;23.302;2024-01-27T05:46:31;93452.41;;;5.83;nan
49545;BME280;74870;42.636;23.302;2024-01-27T05:48:56;93438.78;;;5.76;nan
49545;BME280;74870;42.636;23.302;2024-01-27T05:51:26;93447.41;;;5.82;nan
49545;BME280;74870;42.636;23.302;2024-01-27T05:53:52;93444.03;;;5.81;nan
49545;BME280;74870;42.636;23.302;2024-01-27T05:56:17;93444.88;;;5.92;nan
49545;BME280;74870;42.636;23.302;2024-01-27T05:58:46;93410.88;;;5.67;nan
49545;BME280;74870;42.636;23.302;2024-01-27T06:01:11;93455.78;;;5.84;nan
49545;BME280;74870;42.636;23.302;2024-01-27T06:03:37;93455.84;;;5.94;nan
49545;BME280;74870;42.636;23.302;2024-01-27T06:06:03;93446.59;;;5.76;nan
49545;BME280;74870;42.636;23.302;2024-01-27T06:08:28;93433.03;;;5.69;nan
49545;BME280;74870;42.636;23.302;2024-01-27T06:10:54;93467.00;;;5.84;nan
49545;BME280;74870;42.636;23.302;2024-01-27T06:13:19;93471.91;;;5.81;nan
49545;BME280;74870;42.636;23.302;2024-01-27T06:15:45;93471.41;;;5.84;nan
49545;BME280;74870;42.636;23.302;2024-01-27T06:18:10;93470.09;;;5.81;nan
49545;BME280;74870;42.636;23.302;2024-01-27T06:20:35;93487.28;;;5.82;nan
49545;BME280;74870;42.636;23.302;2024-01-27T06:23:01;93484.94;;;5.81;nan
49545;BME280;74870;42.636;23.302;2024-01-27T06:25:26;93490.16;;;5.81;nan
49545;BME280;74870;42.636;23.302;2024-01-27T06:27:52;93496.09;;;5.76;nan
49545;BME280;74870;42.636;23.302;2024-01-27T06:30:18;93488.81;;;5.73;nan
49545;BME280;74870;42.636;23.302;2024-01-27T06:32:43;93493.75;;;5.75;nan
49545;BME280;74870;42.636;23.302;2024-01-27T06:35:09;93513.78;;;5.69;nan
49545;BME280;74870;42.636;23.302;2024-01-27T06:37:34;93499.84;;;5.49;nan
49545;BME280;74870;42.636;23.302;2024-01-27T06:40:00;93523.91;;;5.66;nan
49545;BME280;74870;42.636;23.302;2024-01-27T06:42:26;93535.03;;;5.56;nan
49545;BME280;74870;42.636;23.302;2024-01-27T06:44:51;93525.13;;;5.53;nan
49545;BME280;74870;42.636;23.302;2024-01-27T06:47:16;93475.13;;;5.51;nan
49545;BME280;74870;42.636;23.302;2024-01-27T06:49:42;93519.22;;;5.63;nan
49545;BME280;74870;42.636;23.302;2024-01-27T06:52:07;93519.47;;;5.61;nan
49545;BME280;74870;42.636;23.302;2024-01-27T06:54:32;93535.84;;;5.62;nan
49545;BME280;74870;42.636;23.302;2024-01-27T06:57:01;93522.75;;;5.52;nan
49545;BME280;74870;42.636;23.302;2024-01-27T06:59:26;93554.59;;;5.59;nan
49545;BME280;74870;42.636;23.302;2024-01-27T07:01:52;93548.88;;;5.62;nan
49545;BME280;74870;42.636;23.302;2024-01-27T07:04:17;93539.00;;;5.64;nan
49545;BME280;74870;42.636;23.302;2024-01-27T07:06:43;93517.53;;;5.47;nan
49545;BME280;74870;42.636;23.302;2024-01-27T07:09:09;93483.34;;;5.38;nan
49545;BME280;74870;42.636;23.302;2024-01-27T07:11:35;93527.22;;;5.88;nan
49545;BME280;74870;42.636;23.302;2024-01-27T07:14:01;93530.44;;;6.05;nan
49545;BME280;74870;42.636;23.302;2024-01-27T07:16:27;93484.59;;;5.67;nan
49545;BME280;74870;42.636;23.302;2024-01-27T07:18:52;93534.06;;;5.99;nan
49545;BME280;74870;42.636;23.302;2024-01-27T07:21:17;93543.91;;;5.92;nan
49545;BME280;74870;42.636;23.302;2024-01-27T07:23:43;93533.72;;;5.85;nan
49545;BME280;74870;42.636;23.302;2024-01-27T07:26:10;93516.66;;;5.36;nan
49545;BME280;74870;42.636;23.302;2024-01-27T07:28:35;93558.69;;;5.81;nan
49545;BME280;74870;42.636;23.302;2024-01-27T07:31:01;93562.22;;;5.65;nan
49545;BME280;74870;42.636;23.302;2024-01-27T07:33:26;93568.97;;;5.66;nan
49545;BME280;74870;42.636;23.302;2024-01-27T07:35:51;93573.00;;;5.47;nan
49545;BME280;74870;42.636;23.302;2024-01-27T07:38:17;93598.69;;;5.39;nan
49545;BME280;74870;42.636;23.302;2024-01-27T07:40:42;93589.75;;;5.30;nan
49545;BME280;74870;42.636;23.302;2024-01-27T07:43:07;93616.00;;;5.23;nan
49545;BME280;74870;42.636;23.302;2024-01-27T07:45:33;93624.31;;;4.98;nan
49545;BME280;74870;42.636;23.302;2024-01-27T07:47:58;93622.63;;;4.87;nan
49545;BME280;74870;42.636;23.302;2024-01-27T07:50:24;93614.44;;;4.79;nan
49545;BME280;74870;42.636;23.302;2024-01-27T07:52:49;93630.06;;;4.79;nan
49545;BME280;74870;42.636;23.302;2024-01-27T07:55:14;93620.81;;;4.88;nan
49545;BME280;74870;42.636;23.302;2024-01-27T07:57:40;93612.34;;;4.76;nan
49545;BME280;74870;42.636;23.302;2024-01-27T08:00:06;93607.50;;;4.63;nan
49545;BME280;74870;42.636;23.302;2024-01-27T08:02:32;93632.91;;;4.77;nan
49545;BME280;74870;42.636;23.302;2024-01-27T08:04:58;93646.75;;;4.61;nan
49545;BME280;74870;42.636;23.302;2024-01-27T08:07:23;93639.25;;;4.65;nan
49545;BME280;74870;42.636;23.302;2024-01-27T08:09:48;93643.75;;;4.69;nan
49545;BME280;74870;42.636;23.302;2024-01-27T08:12:14;93638.66;;;4.58;nan
49545;BME280;74870;42.636;23.302;2024-01-27T08:14:39;93655.47;;;4.72;nan
49545;BME280;74870;42.636;23.302;2024-01-27T08:17:04;93644.41;;;4.81;nan
49545;BME280;74870;42.636;23.302;2024-01-27T08:19:30;93642.97;;;4.90;nan
49545;BME280;74870;42.636;23.302;2024-01-27T08:21:56;93633.97;;;5.03;nan
49545;BME280;74870;42.636;23.302;2024-01-27T08:24:22;93601.59;;;5.16;nan
49545;BME280;74870;42.636;23.302;2024-01-27T08:26:49;93633.91;;;5.20;nan
49545;BME280;74870;42.636;23.302;2024-01-27T08:29:14;93642.88;;;5.29;nan
49545;BME280;74870;42.636;23.302;2024-01-27T08:31:40;93613.28;;;5.40;nan
49545;BME280;74870;42.636;23.302;2024-01-27T08:34:06;93596.94;;;5.44;nan
49545;BME280;74870;42.636;23.302;2024-01-27T08:36:31;93612.25;;;5.41;nan
49545;BME280;74870;42.636;23.302;2024-01-27T08:38:57;93603.13;;;5.38;nan
49545;BME280;74870;42.636;23.302;2024-01-27T08:41:23;93637.16;;;5.32;nan
49545;BME280;74870;42.636;23.302;2024-01-27T08:43:48;93617.19;;;5.37;nan
49545;BME280;74870;42.636;23.302;2024-01-27T08:46:13;93595.13;;;5.45;nan
49545;BME280;74870;42.636;23.302;2024-01-27T08:48:40;93580.19;;;5.35;nan
49545;BME280;74870;42.636;23.302;2024-01-27T08:51:08;93615.78;;;5.56;nan
49545;BME280;74870;42.636;23.302;2024-01-27T08:53:34;93607.25;;;5.66;nan
49545;BME280;74870;42.636;23.302;2024-01-27T08:56:01;93591.06;;;5.90;nan
49545;BME280;74870;42.636;23.302;2024-01-27T08:58:26;93591.66;;;5.98;nan
49545;BME280;74870;42.636;23.302;2024-01-27T09:00:51;93577.84;;;5.97;nan
49545;BME280;74870;42.636;23.302;2024-01-27T09:03:18;93563.53;;;6.05;nan
49545;BME280;74870;42.636;23.302;2024-01-27T09:05:46;93567.25;;;6.14;nan
49545;BME280;74870;42.636;23.302;2024-01-27T09:08:11;93549.19;;;6.49;nan
49545;BME280;74870;42.636;23.302;2024-01-27T09:10:37;93563.09;;;6.69;nan
49545;BME280;74870;42.636;23.302;2024-01-27T09:13:02;93570.66;;;6.71;nan
49545;BME280;74870;42.636;23.302;2024-01-27T09:15:27;93504.88;;;6.59;nan
49545;BME280;74870;42.636;23.302;2024-01-27T09:17:53;93571.28;;;7.03;nan
49545;BME280;74870;42.636;23.302;2024-01-27T09:20:19;93563.97;;;6.95;nan
49545;BME280;74870;42.636;23.302;2024-01-27T09:22:44;93575.72;;;6.93;nan
49545;BME280;74870;42.636;23.302;2024-01-27T09:25:12;93569.41;;;6.78;nan
49545;BME280;74870;42.636;23.302;2024-01-27T09:27:38;93583.78;;;6.86;nan
49545;BME280;74870;42.636;23.302;2024-01-27T09:30:04;93591.03;;;6.79;nan
49545;BME280;74870;42.636;23.302;2024-01-27T09:32:30;93575.56;;;6.57;nan
49545;BME280;74870;42.636;23.302;2024-01-27T09:34:55;93573.22;;;6.61;nan
49545;BME280;74870;42.636;23.302;2024-01-27T09:37:21;93574.63;;;6.78;nan
49545;BME280;74870;42.636;23.302;2024-01-27T09:39:46;93584.56;;;6.92;nan
49545;BME280;74870;42.636;23.302;2024-01-27T09:42:13;93590.13;;;7.15;nan
49545;BME280;74870;42.636;23.302;2024-01-27T09:44:43;93543.13;;;7.15;nan
49545;BME280;74870;42.636;23.302;2024-01-27T09:47:12;93596.47;;;7.54;nan
49545;BME280;74870;42.636;23.302;2024-01-27T09:49:40;93616.31;;;7.50;nan
49545;BME280;74870;42.636;23.302;2024-01-27T09:52:06;93621.78;;;7.34;nan
49545;BME280;74870;42.636;23.302;2024-01-27T09:54:34;93609.44;;;7.09;nan
49545;BME280;74870;42.636;23.302;2024-01-27T09:57:00;93616.47;;;6.99;nan
49545;BME280;74870;42.636;23.302;2024-01-27T09:59:26;93635.41;;;6.74;nan
49545;BME280;74870;42.636;23.302;2024-01-27T10:01:52;93624.81;;;6.44;nan
49545;BME280;74870;42.636;23.302;2024-01-27T10:04:22;93634.72;;;6.42;nan
49545;BME280;74870;42.636;23.302;2024-01-27T10:06:49;93593.28;;;6.09;nan
49545;BME280;74870;42.636;23.302;2024-01-27T10:09:15;93650.34;;;6.42;nan
49545;BME280;74870;42.636;23.302;2024-01-27T10:11:45;93644.94;;;6.48;nan
49545;BME280;74870;42.636;23.302;2024-01-27T10:14:11;93662.03;;;6.34;nan
49545;BME280;74870;42.636;23.302;2024-01-27T10:16:40;93658.94;;;6.42;nan
49545;BME280;74870;42.636;23.302;2024-01-27T10:19:06;93672.63;;;6.18;nan
49545;BME280;74870;42.636;23.302;2024-01-27T10:21:31;93663.13;;;6.07;nan
49545;BME280;74870;42.636;23.302;2024-01-27T10:23:57;93673.53;;;5.75;nan
49545;BME280;74870;42.636;23.302;2024-01-27T10:26:23;93680.56;;;5.74;nan
49545;BME280;74870;42.636;23.302;2024-01-27T10:28:55;93687.91;;;5.77;nan
49545;BME280;74870;42.636;23.302;2024-01-27T10:31:26;93657.09;;;5.48;nan
49545;BME280;74870;42.636;23.302;2024-01-27T10:33:53;93690.78;;;5.54;nan
49545;BME280;74870;42.636;23.302;2024-01-27T10:36:19;93692.44;;;5.39;nan
49545;BME280;74870;42.636;23.302;2024-01-27T10:38:44;93668.09;;;5.28;nan
49545;BME280;74870;42.636;23.302;2024-01-27T10:41:10;93691.00;;;5.26;nan
49545;BME280;74870;42.636;23.302;2024-01-27T10:43:36;93687.03;;;5.19;nan
49545;BME280;74870;42.636;23.302;2024-01-27T10:46:05;93677.88;;;5.16;nan
49545;BME280;74870;42.636;23.302;2024-01-27T10:48:31;93667.81;;;5.03;nan
49545;BME280;74870;42.636;23.302;2024-01-27T10:51:00;93685.16;;;4.92;nan
49545;BME280;74870;42.636;23.302;2024-01-27T10:53:29;93697.31;;;5.08;nan
49545;BME280;74870;42.636;23.302;2024-01-27T10:56:00;93716.00;;;5.05;nan
49545;BME280;74870;42.636;23.302;2024-01-27T10:58:29;93689.31;;;5.15;nan
49545;BME280;74870;42.636;23.302;2024-01-27T11:00:56;93681.53;;;5.15;nan
49545;BME280;74870;42.636;23.302;2024-01-27T11:03:24;93704.19;;;5.20;nan
49545;BME280;74870;42.636;23.302;2024-01-27T11:05:51;93703.19;;;5.21;nan
49545;BME280;74870;42.636;23.302;2024-01-27T11:08:18;93689.88;;;5.17;nan
49545;BME280;74870;42.636;23.302;2024-01-27T11:10:44;93708.78;;;5.34;nan
49545;BME280;74870;42.636;23.302;2024-01-27T11:13:10;93682.41;;;5.04;nan
49545;BME280;74870;42.636;23.302;2024-01-27T11:15:36;93692.34;;;5.29;nan
49545;BME280;74870;42.636;23.302;2024-01-27T11:18:04;93694.03;;;5.18;nan
49545;BME280;74870;42.636;23.302;2024-01-27T11:20:31;93703.66;;;5.18;nan
49545;BME280;74870;42.636;23.302;2024-01-27T11:23:08;93704.53;;;5.23;nan
49545;BME280;74870;42.636;23.302;2024-01-27T11:25:34;93682.13;;;5.00;nan
49545;BME280;74870;42.636;23.302;2024-01-27T11:27:59;93703.16;;;4.99;nan
49545;BME280;74870;42.636;23.302;2024-01-27T11:30:35;93711.63;;;4.89;nan
49545;BME280;74870;42.636;23.302;2024-01-27T11:33:05;93715.91;;;4.79;nan
49545;BME280;74870;42.636;23.302;2024-01-27T11:35:31;93697.25;;;4.65;nan
49545;BME280;74870;42.636;23.302;2024-01-27T11:37:57;93709.69;;;4.80;nan
49545;BME280;74870;42.636;23.302;2024-01-27T11:40:22;93695.59;;;4.76;nan
49545;BME280;74870;42.636;23.302;2024-01-27T11:45:20;93712.03;;;4.81;nan
49545;BME280;74870;42.636;23.302;2024-01-27T11:47:46;93718.34;;;4.85;nan
49545;BME280;74870;42.636;23.302;2024-01-27T11:50:11;93724.34;;;4.86;nan
49545;BME280;74870;42.636;23.302;2024-01-27T11:52:37;93734.63;;;4.76;nan
49545;BME280;74870;42.636;23.302;2024-01-27T11:55:02;93703.66;;;4.58;nan
49545;BME280;74870;42.636;23.302;2024-01-27T11:57:29;93707.63;;;4.82;nan
49545;BME280;74870;42.636;23.302;2024-01-27T11:59:54;93715.44;;;4.82;nan
49545;BME280;74870;42.636;23.302;2024-01-27T12:02:19;93702.44;;;4.82;nan
49545;BME280;74870;42.636;23.302;2024-01-27T12:04:45;93700.31;;;4.79;nan
49545;BME280;74870;42.636;23.302;2024-01-27T12:07:12;93715.88;;;4.95;nan
49545;BME280;74870;42.636;23.302;2024-01-27T12:09:37;93728.63;;;4.97;nan
49545;BME280;74870;42.636;23.302;2024-01-27T12:12:06;93723.09;;;4.88;nan
49545;BME280;74870;42.636;23.302;2024-01-27T12:14:46;93739.50;;;5.10;nan
49545;BME280;74870;42.636;23.302;2024-01-27T12:17:12;93740.09;;;5.18;nan
49545;BME280;74870;42.636;23.302;2024-01-27T12:19:38;93745.56;;;5.16;nan
49545;BME280;74870;42.636;23.302;2024-01-27T12:22:05;93750.03;;;5.21;nan
49545;BME280;74870;42.636;23.302;2024-01-27T12:24:30;93688.47;;;5.09;nan
49545;BME280;74870;42.636;23.302;2024-01-27T12:26:59;93752.09;;;5.40;nan
49545;BME280;74870;42.636;23.302;2024-01-27T12:29:24;93736.31;;;5.25;nan
49545;BME280;74870;42.636;23.302;2024-01-27T12:31:50;93744.66;;;5.27;nan
49545;BME280;74870;42.636;23.302;2024-01-27T12:34:17;93749.50;;;5.19;nan
49545;BME280;74870;42.636;23.302;2024-01-27T12:36:43;93745.56;;;5.16;nan
49545;BME280;74870;42.636;23.302;2024-01-27T12:39:09;93748.56;;;5.08;nan
49545;BME280;74870;42.636;23.302;2024-01-27T12:41:35;93753.63;;;4.76;nan
49545;BME280;74870;42.636;23.302;2024-01-27T12:44:01;93742.00;;;4.84;nan
49545;BME280;74870;42.636;23.302;2024-01-27T12:46:29;93754.31;;;4.88;nan
49545;BME280;74870;42.636;23.302;2024-01-27T12:48:56;93744.78;;;4.77;nan
49545;BME280;74870;42.636;23.302;2024-01-27T12:51:21;93703.69;;;4.24;nan
49545;BME280;74870;42.636;23.302;2024-01-27T12:53:47;93755.13;;;4.56;nan
49545;BME280;74870;42.636;23.302;2024-01-27T12:56:14;93769.94;;;4.55;nan
49545;BME280;74870;42.636;23.302;2024-01-27T12:58:40;93760.59;;;4.54;nan
49545;BME280;74870;42.636;23.302;2024-01-27T13:01:07;93767.59;;;4.70;nan
49545;BME280;74870;42.636;23.302;2024-01-27T13:03:32;93775.53;;;4.64;nan
49545;BME280;74870;42.636;23.302;2024-01-27T13:05:58;93767.28;;;4.50;nan
49545;BME280;74870;42.636;23.302;2024-01-27T13:08:23;93752.53;;;4.39;nan
49545;BME280;74870;42.636;23.302;2024-01-27T13:10:49;93769.78;;;4.45;nan
49545;BME280;74870;42.636;23.302;2024-01-27T13:13:15;93749.47;;;4.42;nan
49545;BME280;74870;42.636;23.302;2024-01-27T13:15:41;93759.09;;;4.42;nan
49545;BME280;74870;42.636;23.302;2024-01-27T13:18:06;93760.34;;;4.39;nan